Time;durP1;ratioP1;P1;durP2;ratioP2;P2;SDS_P1;SDS_P2;PMS_P1;PMS_P2;Temp;Humidity;BMP_temperature;BMP_pressure;BME280_temperature;BME280_humidity;BME280_pressure;Samples;Min_cycle;Max_cycle;Signal;HPM_P1;HPM_P2
2023/08/17 00:02:00;;;;;;;;;32.00;27.00;;;;;24.49;56.42;101294.31;5036285;28;45490;-69
2023/08/17 00:04:26;;;;;;;;;30.33;22.67;;;;;24.45;56.93;101286.47;5036728;28;45435;-70
2023/08/17 00:06:51;;;;;;;;;22.33;19.33;;;;;24.49;56.86;101294.31;5038159;28;45378;-69
2023/08/17 00:09:17;;;;;;;;;19.33;18.00;;;;;24.50;56.57;101288.00;5036591;28;45800;-68
2023/08/17 00:11:43;;;;;;;;;19.67;17.33;;;;;24.41;56.72;101291.09;5034898;28;45467;-69
2023/08/17 00:14:10;;;;;;;;;19.00;17.33;;;;;24.38;56.80;101293.91;5036222;28;45496;-70
2023/08/17 00:16:35;;;;;;;;;19.67;18.33;;;;;24.32;57.12;101283.47;5036334;28;45534;-70
2023/08/17 00:19:01;;;;;;;;;20.33;18.00;;;;;24.31;57.64;101289.78;5036675;28;46684;-70
2023/08/17 00:21:26;;;;;;;;;21.67;18.67;;;;;24.34;57.34;101284.28;5037836;28;46856;-71
2023/08/17 00:23:52;;;;;;;;;15.33;15.33;;;;;24.34;57.35;101293.19;5037857;28;45385;-70
2023/08/17 00:26:17;;;;;;;;;13.67;12.67;;;;;24.25;57.76;101274.88;5035846;28;45728;-70
2023/08/17 00:28:44;;;;;;;;;16.00;13.67;;;;;24.40;57.97;101285.81;5036930;28;46992;-69
2023/08/17 00:31:09;;;;;;;;;21.00;18.00;;;;;24.32;57.91;101284.38;5038066;28;45538;-69
2023/08/17 00:33:35;;;;;;;;;21.00;19.00;;;;;24.27;58.01;101275.66;5040274;28;45849;-69
2023/08/17 00:36:00;;;;;;;;;21.00;16.67;;;;;24.15;57.93;101262.00;5039169;28;45483;-69
2023/08/17 00:38:26;;;;;;;;;18.33;16.00;;;;;24.10;58.66;101272.91;5037158;28;45446;-69
2023/08/17 00:40:51;;;;;;;;;21.00;18.67;;;;;23.92;58.66;101242.53;5037282;28;45338;-70
2023/08/17 00:43:17;;;;;;;;;16.00;16.00;;;;;24.01;59.16;101276.00;5038049;28;45436;-69
2023/08/17 00:45:45;;;;;;;;;18.67;17.00;;;;;23.97;58.94;101266.41;5036642;28;45552;-68
2023/08/17 00:48:11;;;;;;;;;20.00;19.00;;;;;24.01;59.05;101276.88;5036058;28;45370;-69
2023/08/17 00:50:39;;;;;;;;;14.67;12.67;;;;;23.95;59.04;101285.19;5035906;28;45435;-69
2023/08/17 00:53:05;;;;;;;;;16.33;14.33;;;;;23.97;59.13;101286.00;5035928;28;45736;-69
2023/08/17 00:55:31;;;;;;;;;14.67;14.67;;;;;24.00;59.13;101284.97;5037265;28;45507;-69
2023/08/17 00:57:57;;;;;;;;;14.67;14.00;;;;;23.97;58.92;101272.63;5039210;28;45539;-69
2023/08/17 01:00:25;;;;;;;;;18.00;16.00;;;;;24.01;59.18;101289.38;5039330;28;45527;-68
2023/08/17 01:02:57;;;;;;;;;20.33;19.00;;;;;24.00;58.94;101277.81;5039153;28;45497;-67
2023/08/17 01:05:23;;;;;;;;;19.33;16.67;;;;;23.93;59.23;101265.66;5025277;28;45585;-68
2023/08/17 01:07:49;;;;;;;;;16.33;14.67;;;;;23.97;59.49;101285.13;5037791;28;47893;-68
2023/08/17 01:10:16;;;;;;;;;19.00;15.67;;;;;23.94;59.58;101286.09;5038901;28;45488;-69
2023/08/17 01:13:05;;;;;;;;;18.00;14.67;;;;;23.77;59.58;101267.28;5039160;28;45382;-70
2023/08/17 01:15:36;;;;;;;;;27.00;22.00;;;;;23.77;59.76;101278.84;5039282;28;45409;-70
2023/08/17 01:18:22;;;;;;;;;21.00;18.67;;;;;23.75;60.18;101274.50;5039973;28;46376;-70
2023/08/17 01:20:49;;;;;;;;;20.33;17.67;;;;;23.68;59.97;101255.16;5041314;28;45462;-70
2023/08/17 01:23:14;;;;;;;;;21.33;16.33;;;;;23.73;59.97;101263.84;5039652;28;45459;-70
2023/08/17 01:25:40;;;;;;;;;13.67;13.67;;;;;23.79;59.53;101268.94;5040784;28;45547;-70
2023/08/17 01:28:06;;;;;;;;;17.33;15.67;;;;;23.73;59.85;101265.63;5039005;28;45407;-70
2023/08/17 01:30:58;;;;;;;;;15.00;13.33;;;;;23.68;60.17;101274.75;5039615;28;45571;-68
2023/08/17 01:33:37;;;;;;;;;20.33;18.33;;;;;23.61;60.23;101254.56;5038415;28;45327;-68
2023/08/17 01:36:16;;;;;;;;;20.33;18.33;;;;;23.45;60.05;101226.78;5038683;28;45816;-68
2023/08/17 01:38:44;;;;;;;;;19.33;17.33;;;;;23.74;60.37;101273.63;5039030;28;46706;-69
2023/08/17 01:41:15;;;;;;;;;18.67;16.67;;;;;23.73;60.37;101266.53;5039843;28;45466;-68
2023/08/17 01:43:45;;;;;;;;;19.67;18.00;;;;;23.65;60.35;101268.66;5038810;28;45841;-70
2023/08/17 01:46:14;;;;;;;;;19.00;16.67;;;;;23.51;61.07;101266.59;5037120;28;45544;-69
2023/08/17 01:48:40;;;;;;;;;18.33;18.33;;;;;23.51;60.86;101258.56;5038365;28;46327;-70
2023/08/17 01:51:05;;;;;;;;;21.00;17.33;;;;;23.54;60.97;101268.25;5038806;28;45445;-69
2023/08/17 01:53:31;;;;;;;;;21.00;18.67;;;;;23.46;61.30;101272.13;5039280;28;45475;-68
2023/08/17 01:55:56;;;;;;;;;16.67;16.00;;;;;23.45;61.76;101273.09;5038931;28;45465;-69
2023/08/17 01:58:22;;;;;;;;;22.33;17.67;;;;;23.36;61.79;101272.63;5038335;28;46510;-69
2023/08/17 02:00:49;;;;;;;;;19.00;17.00;;;;;23.24;61.42;101253.50;5038226;28;45353;-70
2023/08/17 02:03:15;;;;;;;;;16.33;16.00;;;;;23.34;61.39;101264.66;5037199;28;45471;-69
2023/08/17 02:05:45;;;;;;;;;20.00;14.33;;;;;23.48;61.01;101272.94;5040439;28;45350;-69
2023/08/17 02:08:11;;;;;;;;;20.67;19.33;;;;;23.48;61.18;101278.28;5039018;28;45438;-70
2023/08/17 02:10:36;;;;;;;;;14.67;12.67;;;;;23.41;61.43;101270.59;5039767;28;45461;-68
2023/08/17 02:13:02;;;;;;;;;21.67;18.00;;;;;23.41;61.75;101281.28;5038748;28;46183;-69
2023/08/17 02:15:31;;;;;;;;;19.00;16.67;;;;;23.38;61.58;101278.75;5038646;28;45387;-69
2023/08/17 02:17:59;;;;;;;;;19.33;15.33;;;;;23.21;61.52;101255.44;5037960;28;46248;-68
2023/08/17 02:20:25;;;;;;;;;22.00;19.67;;;;;23.39;61.28;101281.34;5038117;28;45579;-68
2023/08/17 02:22:50;;;;;;;;;17.67;17.67;;;;;23.39;61.70;101289.38;5038390;28;45527;-70
2023/08/17 02:25:16;;;;;;;;;20.33;18.00;;;;;23.36;61.40;101284.16;5036761;28;45563;-69
2023/08/17 02:27:42;;;;;;;;;16.67;16.00;;;;;23.46;61.52;101285.50;5037633;28;45373;-69
2023/08/17 02:30:08;;;;;;;;;19.00;15.67;;;;;23.54;60.94;101290.53;5038068;28;45643;-69
2023/08/17 02:32:33;;;;;;;;;20.67;17.67;;;;;23.57;60.64;101290.41;5038303;28;45364;-68
2023/08/17 02:34:59;;;;;;;;;22.00;20.00;;;;;23.64;61.20;101299.88;5038533;28;45425;-67
2023/08/17 02:37:24;;;;;;;;;19.67;16.67;;;;;23.49;61.32;101281.81;5037759;28;45414;-68
2023/08/17 02:39:50;;;;;;;;;20.00;15.00;;;;;23.57;61.22;101286.84;5037286;28;45521;-67
2023/08/17 02:42:15;;;;;;;;;21.33;18.67;;;;;23.61;61.15;101291.13;5037779;28;45426;-69
2023/08/17 02:44:41;;;;;;;;;18.67;17.33;;;;;23.60;61.00;101284.91;5037944;28;45318;-70
2023/08/17 02:47:06;;;;;;;;;24.00;18.67;;;;;23.57;61.41;101297.56;5036382;28;45419;-69
2023/08/17 02:49:33;;;;;;;;;17.67;15.33;;;;;23.46;61.34;101284.63;5037228;28;45506;-69
2023/08/17 02:51:58;;;;;;;;;17.00;16.67;;;;;23.52;61.26;101284.38;5036596;28;45642;-69
2023/08/17 02:54:24;;;;;;;;;22.67;16.00;;;;;23.58;60.66;101286.78;5041057;28;45309;-68
2023/08/17 02:56:50;;;;;;;;;17.00;14.67;;;;;23.62;60.55;101285.72;5038193;28;45514;-68
2023/08/17 02:59:16;;;;;;;;;15.00;14.67;;;;;23.73;60.67;101295.94;5040187;28;45448;-68
2023/08/17 03:01:41;;;;;;;;;17.00;16.00;;;;;23.77;60.61;101305.59;5038669;28;45468;-69
2023/08/17 03:04:07;;;;;;;;;17.33;15.33;;;;;23.78;60.45;101310.03;5038206;28;45559;-70
2023/08/17 03:06:32;;;;;;;;;18.33;15.67;;;;;23.74;60.14;101296.84;5039674;28;45553;-69
2023/08/17 03:08:58;;;;;;;;;29.67;28.67;;;;;23.83;60.75;101299.13;5037345;28;45354;-68
2023/08/17 03:11:24;;;;;;;;;18.67;17.67;;;;;23.71;60.67;101303.16;5038601;28;45559;-68
2023/08/17 03:13:49;;;;;;;;;20.00;17.33;;;;;23.61;60.69;101280.41;5037278;28;45413;-68
2023/08/17 03:16:15;;;;;;;;;17.00;17.00;;;;;23.67;60.67;101281.03;5037346;28;45497;-67
2023/08/17 03:18:42;;;;;;;;;22.67;17.00;;;;;23.63;60.30;101271.44;5037453;28;45484;-68
2023/08/17 03:21:08;;;;;;;;;17.67;16.33;;;;;23.74;60.41;101289.69;5036255;28;45435;-68
2023/08/17 03:23:34;;;;;;;;;19.00;18.67;;;;;23.74;60.71;101292.34;5036820;28;45486;-68
2023/08/17 03:25:59;;;;;;;;;35.00;27.00;;;;;23.63;60.80;101278.56;5036499;28;45657;-68
2023/08/17 03:28:25;;;;;;;;;28.00;26.00;;;;;23.59;60.98;101282.31;5037050;28;45420;-68
2023/08/17 03:30:56;;;;;;;;;31.33;26.67;;;;;23.37;61.43;101267.22;5036869;28;45354;-68
2023/08/17 03:33:21;;;;;;;;;28.67;24.00;;;;;23.39;61.95;101281.34;5036853;28;45485;-67
2023/08/17 03:35:47;;;;;;;;;26.33;23.00;;;;;23.36;62.22;101281.50;5038028;28;46397;-68
2023/08/17 03:38:13;;;;;;;;;20.67;18.00;;;;;23.25;62.33;101287.31;5037292;28;45296;-69
2023/08/17 03:40:38;;;;;;;;;21.33;18.67;;;;;23.17;62.51;101277.88;5035548;28;45530;-68
2023/08/17 03:43:04;;;;;;;;;21.33;20.33;;;;;23.14;61.99;101265.50;5037112;28;45461;-68
2023/08/17 03:45:30;;;;;;;;;16.00;16.00;;;;;23.28;62.14;101270.28;5037862;28;45532;-69
2023/08/17 03:47:56;;;;;;;;;17.33;14.33;;;;;23.32;61.96;101273.66;5038797;28;45364;-69
2023/08/17 03:50:22;;;;;;;;;25.33;24.00;;;;;23.31;62.16;101271.94;5038551;28;45597;-68
2023/08/17 03:52:48;;;;;;;;;21.67;19.33;;;;;23.17;62.02;101254.69;5038342;28;45245;-69
2023/08/17 03:55:13;;;;;;;;;23.00;18.00;;;;;23.33;61.97;101281.63;5037017;28;45543;-69
2023/08/17 03:57:39;;;;;;;;;22.33;18.33;;;;;23.35;61.53;101273.53;5037333;28;45391;-69
2023/08/17 04:00:06;;;;;;;;;17.67;17.67;;;;;23.20;62.43;101275.06;5036948;28;45434;-69
2023/08/17 04:02:31;;;;;;;;;19.67;19.00;;;;;23.09;62.57;101267.50;5036857;28;45496;-68
2023/08/17 04:04:57;;;;;;;;;28.67;26.67;;;;;23.23;62.19;101274.91;5035223;28;46354;-69
2023/08/17 04:07:23;;;;;;;;;28.00;24.00;;;;;23.13;62.55;101271.75;5036585;28;45357;-69
2023/08/17 04:09:49;;;;;;;;;28.33;24.67;;;;;23.07;62.58;101266.69;5036188;28;45562;-67
2023/08/17 04:12:15;;;;;;;;;30.00;24.33;;;;;23.06;63.12;101276.53;5036551;28;45508;-67
2023/08/17 04:14:40;;;;;;;;;21.00;18.67;;;;;23.01;63.47;101274.97;5036579;28;45814;-69
2023/08/17 04:17:06;;;;;;;;;16.67;15.33;;;;;22.95;63.24;101265.38;5036759;28;45346;-69
2023/08/17 04:19:32;;;;;;;;;23.00;18.00;;;;;23.03;62.74;101279.31;5035013;28;45503;-68
2023/08/17 04:21:58;;;;;;;;;18.00;16.67;;;;;23.07;62.57;101278.25;5036680;28;45406;-69
2023/08/17 04:24:24;;;;;;;;;21.67;16.67;;;;;23.11;62.49;101276.31;5035931;28;45433;-68
2023/08/17 04:26:49;;;;;;;;;20.00;15.67;;;;;23.15;62.37;101280.59;5036300;28;45307;-68
2023/08/17 04:29:15;;;;;;;;;22.00;20.00;;;;;23.17;62.66;101269.84;5036392;28;45496;-68
2023/08/17 04:31:40;;;;;;;;;18.67;18.00;;;;;23.19;62.45;101276.00;5040364;28;45385;-68
2023/08/17 04:34:06;;;;;;;;;18.33;16.67;;;;;23.17;62.10;101277.88;5040555;28;45755;-68
2023/08/17 04:36:32;;;;;;;;;18.67;17.33;;;;;23.15;62.44;101259.22;5040463;28;45356;-69
2023/08/17 04:38:58;;;;;;;;;20.33;18.00;;;;;23.24;62.45;101271.34;5041543;28;45770;-69
2023/08/17 04:41:23;;;;;;;;;18.00;17.67;;;;;23.11;62.84;101278.97;5041787;28;45441;-68
2023/08/17 04:43:49;;;;;;;;;19.33;18.33;;;;;23.08;62.50;101271.09;5042102;28;45346;-68
2023/08/17 04:46:15;;;;;;;;;19.00;19.00;;;;;23.17;62.46;101281.41;5041267;28;45440;-66
2023/08/17 04:48:41;;;;;;;;;22.67;18.67;;;;;23.16;62.71;101279.69;5040540;28;45376;-67
2023/08/17 04:51:06;;;;;;;;;22.00;20.00;;;;;23.19;62.94;101279.53;5040280;28;45380;-67
2023/08/17 04:53:43;;;;;;;;;;;;;;;;;;;;;
2023/08/17 04:56:08;;;;;;;;;25.00;23.00;;;;;22.98;63.77;101281.28;5039178;28;72922;-68
2023/08/17 04:58:34;;;;;;;;;23.67;18.00;;;;;23.03;63.18;101281.97;5040436;28;45488;-68
2023/08/17 05:01:00;;;;;;;;;25.67;19.33;;;;;23.05;63.54;101280.13;5038864;28;45290;-68
2023/08/17 05:03:26;;;;;;;;;27.67;24.67;;;;;22.65;62.98;101204.25;5039356;28;45579;-67
2023/08/17 05:05:53;;;;;;;;;26.33;24.00;;;;;22.99;63.76;101277.72;5039016;28;45475;-68
2023/08/17 05:08:18;;;;;;;;;27.00;22.67;;;;;22.93;63.94;101274.38;5039247;28;45367;-66
2023/08/17 05:10:44;;;;;;;;;26.67;23.33;;;;;22.79;63.63;101246.44;5039276;28;45397;-67
2023/08/17 05:13:09;;;;;;;;;27.33;21.33;;;;;22.75;63.75;101236.78;5040219;28;46338;-69
2023/08/17 05:15:36;;;;;;;;;28.00;25.67;;;;;22.88;64.14;101281.72;5039312;28;45442;-68
2023/08/17 05:18:01;;;;;;;;;24.67;21.33;;;;;22.68;65.05;101267.34;5039241;28;45433;-71
2023/08/17 05:20:27;;;;;;;;;20.67;20.00;;;;;22.69;64.43;101262.91;5038560;28;45523;-69
2023/08/17 05:22:53;;;;;;;;;27.00;25.33;;;;;22.68;64.97;101270.00;5036924;28;47001;-68
2023/08/17 05:25:19;;;;;;;;;19.33;19.00;;;;;22.60;65.44;101269.47;5038307;28;45588;-68
2023/08/17 05:27:45;;;;;;;;;25.67;23.67;;;;;22.63;65.42;101270.19;5039088;28;45515;-69
2023/08/17 05:30:11;;;;;;;;;37.00;26.00;;;;;22.54;66.18;101277.69;5039861;28;46697;-69
2023/08/17 05:32:36;;;;;;;;;31.00;22.33;;;;;22.23;66.01;101212.19;5039213;28;45469;-68
2023/08/17 05:35:02;;;;;;;;;26.00;23.00;;;;;22.49;65.51;101235.19;5040317;28;45311;-68
2023/08/17 05:37:28;;;;;;;;;20.33;16.67;;;;;22.54;64.97;101210.97;5041384;28;45337;-67
2023/08/17 05:39:54;;;;;;;;;27.00;26.00;;;;;23.02;64.44;101255.34;5041951;28;45335;-69
2023/08/17 05:42:19;;;;;;;;;20.33;18.00;;;;;23.04;64.36;101232.06;5037976;28;46021;-70
2023/08/17 05:44:46;;;;;;;;;23.33;21.33;;;;;23.34;64.60;101261.13;5040464;28;45382;-70
2023/08/17 05:47:15;;;;;;;;;19.67;19.67;;;;;23.47;63.37;101265.00;5039790;28;45381;-70
2023/08/17 05:49:40;;;;;;;;;23.33;20.67;;;;;23.59;64.00;101261.78;5028973;28;45538;-69
2023/08/17 05:52:06;;;;;;;;;30.00;24.67;;;;;23.67;63.13;101256.09;5038200;28;45405;-69
2023/08/17 05:54:38;;;;;;;;;31.33;29.67;;;;;23.37;63.21;101199.50;5038121;28;45292;-70
2023/08/17 05:57:04;;;;;;;;;26.67;26.33;;;;;23.45;63.44;101237.47;5038706;28;45268;-68
2023/08/17 05:59:30;;;;;;;;;30.67;28.67;;;;;23.56;63.98;101255.69;5039205;28;45449;-67
2023/08/17 06:02:23;;;;;;;;;29.00;22.00;;;;;23.65;63.60;101247.28;5038171;28;46191;-70
2023/08/17 06:04:53;;;;;;;;;25.67;23.00;;;;;23.75;63.26;101255.78;5036784;28;45466;-70
2023/08/17 06:07:19;;;;;;;;;21.67;21.67;;;;;23.82;64.03;101244.72;5038343;28;45434;-70
2023/08/17 06:09:45;;;;;;;;;32.33;22.33;;;;;23.92;63.01;101239.84;5038009;28;45562;-71
2023/08/17 06:12:11;;;;;;;;;24.67;22.33;;;;;23.96;61.93;101241.44;5036235;28;45811;-71
2023/08/17 06:14:36;;;;;;;;;29.67;23.33;;;;;24.01;62.34;101249.25;5038011;28;45592;-69
2023/08/17 06:17:02;;;;;;;;;28.00;22.67;;;;;24.09;62.43;101239.94;5037904;28;45489;-70
2023/08/17 06:19:29;;;;;;;;;25.00;22.33;;;;;24.14;63.12;101234.38;5038110;28;45433;-70
2023/08/17 06:21:56;;;;;;;;;23.67;20.00;;;;;24.24;61.86;101235.66;5033247;28;46664;-70
2023/08/17 06:24:21;;;;;;;;;26.33;25.33;;;;;24.43;62.30;101243.69;5037592;28;45421;-69
2023/08/17 06:26:48;;;;;;;;;29.67;27.00;;;;;24.54;62.19;101245.91;5039419;28;45532;-71
2023/08/17 06:29:15;;;;;;;;;26.00;23.33;;;;;24.59;61.08;101246.53;5038399;28;45491;-68
2023/08/17 06:32:08;;;;;;;;;25.33;23.33;;;;;24.71;61.64;101245.94;5036537;28;48142;-69
2023/08/17 06:34:34;;;;;;;;;28.00;25.67;;;;;24.68;61.31;101242.56;5049418;28;45601;-69
2023/08/17 06:37:05;;;;;;;;;23.00;20.67;;;;;24.78;59.60;101243.81;5037181;28;45498;-69
2023/08/17 06:39:31;;;;;;;;;26.67;22.00;;;;;24.87;59.65;101248.72;5039399;28;45649;-70
2023/08/17 06:41:57;;;;;;;;;27.00;24.67;;;;;24.73;61.23;101217.25;5037083;28;46536;-69
2023/08/17 06:44:23;;;;;;;;;24.67;20.67;;;;;24.97;60.50;101252.69;5034518;28;45536;-70
2023/08/17 06:46:49;;;;;;;;;29.33;27.33;;;;;24.97;59.78;101231.25;5037427;28;45508;-71
2023/08/17 06:49:15;;;;;;;;;24.67;22.00;;;;;25.08;59.12;101237.84;5038226;28;45654;-69
2023/08/17 06:51:41;;;;;;;;;25.00;22.33;;;;;24.99;59.47;101217.78;5037439;28;45485;-67
2023/08/17 06:54:11;;;;;;;;;28.00;23.00;;;;;25.18;59.36;101240.03;5037460;28;45583;-71
2023/08/17 06:56:36;;;;;;;;;26.33;22.33;;;;;25.18;58.64;101223.09;5037031;28;45469;-71
2023/08/17 06:59:02;;;;;;;;;33.00;27.33;;;;;25.29;58.58;101235.94;5038831;28;45757;-69
2023/08/17 07:01:28;;;;;;;;;32.00;27.33;;;;;25.35;57.79;101225.75;5038002;28;46115;-68
2023/08/17 07:03:54;;;;;;;;;31.33;27.33;;;;;25.11;58.15;101192.16;5037432;28;45421;-71
2023/08/17 07:06:19;;;;;;;;;33.00;28.33;;;;;24.85;57.67;101162.22;5037213;28;45627;-70
2023/08/17 07:08:45;;;;;;;;;24.00;22.00;;;;;25.29;57.79;101231.44;5037514;28;45506;-68
2023/08/17 07:11:11;;;;;;;;;26.33;23.00;;;;;25.38;57.15;101222.06;5036987;28;45474;-69
2023/08/17 07:13:37;;;;;;;;;41.33;34.00;;;;;25.34;56.85;101209.75;5036570;28;45526;-68
2023/08/17 07:16:02;;;;;;;;;37.67;32.67;;;;;25.46;56.36;101229.69;5038421;28;45766;-68
2023/08/17 07:18:29;;;;;;;;;36.33;30.67;;;;;25.21;56.71;101214.88;5039495;28;45767;-69
2023/08/17 07:20:54;;;;;;;;;30.33;29.67;;;;;25.38;57.05;101228.28;5037647;28;46067;-69
2023/08/17 07:23:19;;;;;;;;;25.67;23.67;;;;;25.12;56.95;101164.41;5036944;28;45544;-71
2023/08/17 07:25:45;;;;;;;;;29.67;24.33;;;;;25.56;56.81;101223.78;5037022;28;45497;-70
2023/08/17 07:28:11;;;;;;;;;29.67;26.33;;;;;25.66;56.82;101228.66;5034976;28;45494;-71
2023/08/17 07:30:36;;;;;;;;;23.00;22.67;;;;;25.71;56.22;101219.41;5035319;28;45593;-70
2023/08/17 07:33:03;;;;;;;;;31.33;29.67;;;;;25.75;56.33;101215.59;5036560;28;45441;-71
2023/08/17 07:35:29;;;;;;;;;32.67;28.33;;;;;25.72;55.83;101199.69;5036169;28;45504;-72
2023/08/17 07:37:58;;;;;;;;;33.33;25.33;;;;;25.85;56.22;101220.47;5035991;28;45488;-72
2023/08/17 07:40:24;;;;;;;;;34.33;30.00;;;;;25.48;55.57;101141.97;5038062;28;46155;-72
2023/08/17 07:42:50;;;;;;;;;32.00;28.67;;;;;25.98;56.04;101227.81;5037096;28;45330;-70
2023/08/17 07:45:15;;;;;;;;;31.67;29.00;;;;;26.02;56.16;101223.13;5037208;28;45224;-71
2023/08/17 07:47:41;;;;;;;;;27.33;24.67;;;;;26.11;55.98;101229.81;5037510;28;45434;-70
2023/08/17 07:50:07;;;;;;;;;43.33;35.00;;;;;26.04;55.74;101204.25;5035996;28;46396;-68
2023/08/17 07:52:32;;;;;;;;;43.33;35.33;;;;;26.06;55.56;101238.13;5037240;28;45555;-67
2023/08/17 07:54:58;;;;;;;;;44.67;36.67;;;;;26.00;55.56;101235.75;5037737;28;45442;-71
2023/08/17 07:57:24;;;;;;;;;40.00;32.67;;;;;25.89;56.27;101232.78;5038026;28;45508;-72
2023/08/17 07:59:51;;;;;;;;;32.00;29.33;;;;;25.96;56.31;101245.81;5037435;28;45593;-71
2023/08/17 08:02:17;;;;;;;;;36.00;30.67;;;;;25.74;56.63;101205.81;5036564;28;45433;-71
2023/08/17 08:04:43;;;;;;;;;35.67;32.67;;;;;26.05;56.21;101241.72;5036851;28;45544;-70
2023/08/17 08:07:09;;;;;;;;;39.33;34.00;;;;;25.65;56.10;101186.66;5039169;28;45413;-70
2023/08/17 08:09:35;;;;;;;;;32.67;28.00;;;;;25.58;55.68;101143.25;5038257;28;46272;-70
2023/08/17 08:12:01;;;;;;;;;30.33;27.67;;;;;25.99;55.45;101210.75;5035452;28;45456;-67
2023/08/17 08:14:27;;;;;;;;;29.67;26.33;;;;;26.42;55.41;101250.44;5036410;28;45168;-67
2023/08/17 08:16:52;;;;;;;;;35.00;29.00;;;;;26.40;54.99;101223.66;5036048;28;45283;-67
2023/08/17 08:19:18;;;;;;;;;27.00;26.67;;;;;26.49;54.51;101233.03;5036136;28;45463;-66
2023/08/17 08:21:43;;;;;;;;;34.00;31.00;;;;;26.67;53.82;101246.38;5035634;28;45293;-67
2023/08/17 08:24:09;;;;;;;;;31.33;27.67;;;;;26.68;54.20;101246.31;5035745;28;45451;-69
2023/08/17 08:26:35;;;;;;;;;30.67;28.33;;;;;26.73;54.25;101240.66;5035781;28;45574;-67
2023/08/17 08:29:00;;;;;;;;;30.00;28.00;;;;;26.81;54.37;101241.06;5035150;28;45563;-70
2023/08/17 08:31:26;;;;;;;;;25.67;22.67;;;;;26.86;54.27;101237.19;5034641;28;45633;-69
2023/08/17 08:33:52;;;;;;;;;28.00;27.00;;;;;26.91;53.85;101222.59;5037148;28;45568;-68
2023/08/17 08:36:18;;;;;;;;;43.33;34.33;;;;;27.07;53.40;101232.38;5035849;28;45573;-69
2023/08/17 08:38:44;;;;;;;;;37.33;32.00;;;;;26.97;53.75;101233.00;5035396;28;45359;-67
2023/08/17 08:41:11;;;;;;;;;43.67;34.00;;;;;26.79;53.95;101237.59;5035747;28;45324;-68
2023/08/17 08:43:38;;;;;;;;;37.33;32.33;;;;;26.62;54.59;101242.16;5033982;28;46202;-69
2023/08/17 08:46:05;;;;;;;;;36.67;33.00;;;;;26.74;54.27;101250.44;5034293;28;45540;-68
2023/08/17 08:48:35;;;;;;;;;35.33;31.33;;;;;26.68;54.57;101240.06;5035002;28;46068;-67
2023/08/17 08:51:04;;;;;;;;;36.00;31.33;;;;;26.64;54.80;101236.69;5034949;28;45553;-69
2023/08/17 08:53:44;;;;;;;;;38.33;33.00;;;;;26.62;54.21;101228.72;5036568;28;45391;-67
2023/08/17 08:56:16;;;;;;;;;35.67;32.00;;;;;26.44;54.82;101229.75;5035444;28;45493;-66
2023/08/17 08:58:42;;;;;;;;;32.67;31.00;;;;;26.40;55.13;101230.88;5035505;28;45402;-67
2023/08/17 09:01:10;;;;;;;;;37.00;30.67;;;;;26.43;55.20;101244.09;5035997;28;45358;-67
2023/08/17 09:03:36;;;;;;;;;40.33;33.67;;;;;26.45;54.54;101231.47;5036076;28;45499;-66
2023/08/17 09:06:04;;;;;;;;;41.00;31.33;;;;;26.38;54.48;101220.19;5035800;28;45497;-65
2023/08/17 09:08:30;;;;;;;;;31.67;29.67;;;;;26.42;54.87;101243.25;5032834;28;46296;-66
2023/08/17 09:10:56;;;;;;;;;30.67;28.67;;;;;26.50;54.51;101221.31;5034959;28;45419;-66
2023/08/17 09:13:22;;;;;;;;;32.33;30.33;;;;;26.65;54.16;101233.91;5034195;28;45531;-64
2023/08/17 09:15:48;;;;;;;;;42.00;32.67;;;;;26.63;53.37;101229.59;5035207;28;45505;-64
2023/08/17 09:18:14;;;;;;;;;36.00;31.00;;;;;26.52;53.52;101216.72;5037422;28;45354;-68
2023/08/17 09:20:44;;;;;;;;;32.00;29.33;;;;;26.49;53.50;101226.81;5038407;28;45476;-65
2023/08/17 09:23:21;;;;;;;;;31.67;30.00;;;;;26.48;53.97;101225.03;5038241;28;45404;-65
2023/08/17 09:25:49;;;;;;;;;32.33;29.67;;;;;26.45;54.48;101221.56;5037267;28;45533;-66
2023/08/17 09:28:20;;;;;;;;;33.00;30.67;;;;;26.53;54.09;101221.16;5037565;28;45710;-65
2023/08/17 09:31:03;;;;;;;;;29.00;27.00;;;;;26.61;53.46;101216.25;5038376;28;45616;-66
2023/08/17 09:33:31;;;;;;;;;29.67;28.67;;;;;26.76;52.58;101221.69;5037443;28;45433;-67
2023/08/17 09:35:58;;;;;;;;;32.00;29.00;;;;;26.80;52.27;101225.94;5038019;28;45465;-66
2023/08/17 09:38:24;;;;;;;;;29.33;28.00;;;;;26.75;52.13;101210.06;5037753;28;45523;-65
2023/08/17 09:40:51;;;;;;;;;33.00;30.67;;;;;26.74;52.09;101213.72;5038511;28;45770;-66
2023/08/17 09:43:18;;;;;;;;;31.33;28.33;;;;;26.71;52.43;101213.88;5038124;28;45379;-67
2023/08/17 09:45:49;;;;;;;;;36.67;30.00;;;;;26.62;52.27;101199.19;5038127;28;45959;-66
2023/08/17 09:48:19;;;;;;;;;32.33;28.00;;;;;26.70;51.97;101206.78;5039250;28;45448;-65
2023/08/17 09:50:46;;;;;;;;;26.33;26.33;;;;;26.77;52.15;101208.16;5039612;28;45482;-66
2023/08/17 09:53:14;;;;;;;;;30.00;27.00;;;;;26.75;52.32;101202.00;5039900;28;45565;-64
2023/08/17 09:55:41;;;;;;;;;29.67;29.33;;;;;26.85;52.10;101203.19;5038521;28;45484;-66
2023/08/17 09:58:08;;;;;;;;;34.33;30.00;;;;;26.87;52.13;101208.47;5038082;28;46397;-66
2023/08/17 10:00:34;;;;;;;;;35.00;27.33;;;;;26.87;51.94;101197.72;5038033;28;45697;-65
2023/08/17 10:03:03;;;;;;;;;32.33;30.33;;;;;26.92;51.21;101184.03;5037900;28;45604;-66
2023/08/17 10:05:38;;;;;;;;;36.33;26.33;;;;;27.01;50.71;101192.41;5026313;28;45385;-67
2023/08/17 10:08:07;;;;;;;;;27.00;23.33;;;;;27.00;51.08;101188.00;5038245;28;46556;-65
2023/08/17 10:10:35;;;;;;;;;33.67;28.67;;;;;27.04;50.88;101192.22;5038135;28;45337;-66
2023/08/17 10:13:11;;;;;;;;;27.67;25.33;;;;;27.00;51.81;101179.03;5037865;28;45474;-66
2023/08/17 10:16:03;;;;;;;;;26.00;24.00;;;;;27.17;51.48;101188.78;5037883;28;45509;-66
2023/08/17 10:18:49;;;;;;;;;20.00;19.33;;;;;27.19;51.38;101166.28;5034358;28;46521;-66
2023/08/17 10:21:27;;;;;;;;;29.00;25.67;;;;;27.25;51.49;101159.66;5035892;28;45532;-66
2023/08/17 10:23:53;;;;;;;;;23.00;23.00;;;;;27.42;50.67;101169.34;5037733;28;45420;-66
2023/08/17 10:26:24;;;;;;;;;22.33;22.00;;;;;27.50;49.86;101161.66;5037770;28;45434;-66
2023/08/17 10:28:52;;;;;;;;;27.33;26.33;;;;;27.64;48.89;101169.72;5032074;28;46547;-65
2023/08/17 10:31:19;;;;;;;;;22.00;21.33;;;;;27.47;49.08;101127.75;5037950;28;45477;-66
2023/08/17 10:33:48;;;;;;;;;24.00;21.67;;;;;27.67;48.57;101141.78;5037027;28;45366;-67
2023/08/17 10:36:15;;;;;;;;;26.33;25.33;;;;;27.85;49.03;101167.53;5037922;28;45409;-68
2023/08/17 10:38:40;;;;;;;;;23.00;19.33;;;;;27.78;47.97;101144.66;5036630;28;45402;-66
2023/08/17 10:41:10;;;;;;;;;24.00;21.00;;;;;27.89;48.48;101161.00;5036998;28;45529;-68
2023/08/17 10:43:58;;;;;;;;;22.33;20.67;;;;;28.01;48.37;101153.13;5037054;28;45382;-67
2023/08/17 10:46:34;;;;;;;;;21.33;20.00;;;;;28.00;47.60;101135.22;5038956;28;45427;-67
2023/08/17 10:49:27;;;;;;;;;25.00;20.75;;;;;27.90;46.57;101103.53;5037539;28;45652;-67
2023/08/17 10:52:03;;;;;;;;;22.33;21.33;;;;;28.19;46.56;101134.88;5036946;28;45326;-68
2023/08/17 10:54:45;;;;;;;;;18.25;18.00;;;;;28.25;46.45;101137.19;5034890;28;45386;-66
2023/08/17 10:57:30;;;;;;;;;19.75;19.00;;;;;28.39;45.93;101149.75;5037387;28;45490;-65
2023/08/17 11:00:26;;;;;;;;;21.25;19.75;;;;;28.45;45.60;101150.22;5037412;28;45491;-66
2023/08/17 11:03:03;;;;;;;;;18.25;16.75;;;;;28.48;45.90;101139.25;5034483;28;45416;-66
2023/08/17 11:05:44;;;;;;;;;20.75;18.75;;;;;28.63;44.49;101145.44;5035773;28;45697;-68
2023/08/17 11:08:40;;;;;;;;;20.00;17.00;;;;;28.70;43.09;101141.34;5036874;28;45532;-67
2023/08/17 11:11:17;;;;;;;;;16.75;13.75;;;;;28.66;43.33;101115.56;5034358;28;46055;-67
2023/08/17 11:13:45;;;;;;;;;19.25;17.50;;;;;28.58;44.44;101090.97;5038041;28;45407;-66